createdAt,value
2023-05-10T00:02:20.760Z,10.23
2023-05-10T00:05:24.003Z,10.32
2023-05-10T00:08:26.965Z,10.32
2023-05-10T00:11:29.897Z,10.39
2023-05-10T00:14:32.815Z,10.37
2023-05-10T00:17:36.073Z,10.42
2023-05-10T00:20:38.699Z,10.38
2023-05-10T00:23:41.560Z,10.36
2023-05-10T00:26:44.225Z,10.44
2023-05-10T00:29:47.508Z,10.54
2023-05-10T00:32:50.955Z,10.61
2023-05-10T00:35:53.993Z,10.65
2023-05-10T00:38:56.964Z,10.72
2023-05-10T00:42:01.191Z,10.70
2023-05-10T00:45:04.383Z,10.71
2023-05-10T00:48:07.440Z,10.70
2023-05-10T00:51:10.345Z,10.71
2023-05-10T00:54:16.262Z,10.71
2023-05-10T00:57:19.030Z,10.78
2023-05-10T01:00:22.699Z,10.76
2023-05-10T01:03:26.439Z,10.85
2023-05-10T01:06:29.737Z,10.92
2023-05-10T01:09:33.467Z,10.84
2023-05-10T01:12:38.917Z,10.77
2023-05-10T01:15:42.100Z,10.72
2023-05-10T01:18:45.709Z,10.70
2023-05-10T01:21:57.496Z,10.67
2023-05-10T01:25:12.908Z,10.65
2023-05-10T01:28:38.085Z,10.65
2023-05-10T01:32:02.905Z,10.72
2023-05-10T01:35:31.782Z,10.79
2023-05-10T01:38:51.240Z,10.90
2023-05-10T01:41:58.459Z,11.03
2023-05-10T01:45:08.109Z,11.02
2023-05-10T01:48:15.814Z,10.85
2023-05-10T01:51:24.290Z,10.76
2023-05-10T01:54:28.329Z,10.76
2023-05-10T01:57:34.739Z,10.80
2023-05-10T02:00:38.324Z,10.78
2023-05-10T02:03:42.242Z,10.74
2023-05-10T02:06:46.425Z,10.87
2023-05-10T02:09:49.612Z,10.84
2023-05-10T02:12:53.208Z,10.70
2023-05-10T02:15:56.701Z,10.64
2023-05-10T02:19:00.502Z,10.52
2023-05-10T02:22:04.174Z,10.41
2023-05-10T02:25:10.208Z,10.34
2023-05-10T02:28:13.598Z,10.34
2023-05-10T02:31:16.815Z,10.10
2023-05-10T02:34:20.631Z,10.18
2023-05-10T02:37:23.798Z,10.12
2023-05-10T02:40:28.763Z,10.07
2023-05-10T02:43:33.655Z,10.04
2023-05-10T02:46:38.250Z,10.00
2023-05-10T02:49:41.406Z,9.93
2023-05-10T02:52:48.119Z,9.85
2023-05-10T02:55:53.533Z,9.82
2023-05-10T02:58:56.516Z,9.65
2023-05-10T03:02:01.384Z,9.76
2023-05-10T03:05:04.552Z,9.66
2023-05-10T03:08:07.879Z,9.64
2023-05-10T03:11:23.628Z,9.62
2023-05-10T03:14:41.422Z,9.63
2023-05-10T03:17:47.770Z,9.62
2023-05-10T03:20:56.998Z,9.65
2023-05-10T03:24:09.504Z,9.61
2023-05-10T03:27:13.019Z,9.69
2023-05-10T03:30:16.024Z,9.65
2023-05-10T03:33:19.655Z,9.63
2023-05-10T03:36:22.578Z,9.66
2023-05-10T03:39:26.222Z,9.54
2023-05-10T03:42:29.291Z,9.46
2023-05-10T03:45:32.429Z,9.59
2023-05-10T03:48:35.865Z,9.62
2023-05-10T03:51:38.873Z,9.57
2023-05-10T03:54:41.871Z,9.62
2023-05-10T03:57:45.066Z,9.57
2023-05-10T04:00:48.193Z,9.61
2023-05-10T04:03:51.556Z,9.58
2023-05-10T04:06:54.387Z,9.59
2023-05-10T04:09:57.496Z,9.53
2023-05-10T04:13:00.025Z,9.50
2023-05-10T04:16:03.513Z,9.56
2023-05-10T04:19:06.072Z,9.54
2023-05-10T04:22:09.479Z,9.48
2023-05-10T04:25:12.565Z,9.55
2023-05-10T04:28:15.738Z,9.59
2023-05-10T04:31:18.318Z,9.62
2023-05-10T04:34:22.224Z,9.69
2023-05-10T04:37:24.771Z,9.73
2023-05-10T04:40:27.538Z,9.68
2023-05-10T04:43:30.034Z,9.77
2023-05-10T04:46:32.805Z,9.82
2023-05-10T04:49:35.296Z,9.89
2023-05-10T04:52:38.183Z,9.93
2023-05-10T04:55:40.707Z,9.98
2023-05-10T04:58:43.568Z,10.04
2023-05-10T05:01:46.128Z,10.12
2023-05-10T05:04:48.992Z,10.24
2023-05-10T05:07:51.663Z,11.04
2023-05-10T05:10:55.401Z,10.92
2023-05-10T05:14:00.122Z,10.88
2023-05-10T05:17:03.041Z,10.84
2023-05-10T05:20:06.476Z,10.86
2023-05-10T05:23:09.320Z,10.84
2023-05-10T05:26:11.904Z,10.82
2023-05-10T05:29:14.664Z,10.89
2023-05-10T05:32:17.210Z,10.92
2023-05-10T05:35:20.028Z,10.93
2023-05-10T05:38:22.573Z,11.03
2023-05-10T05:41:25.613Z,11.13
2023-05-10T05:44:29.834Z,11.26
2023-05-10T05:47:32.766Z,11.13
2023-05-10T05:50:35.317Z,11.31
2023-05-10T05:53:38.177Z,11.30
2023-05-10T05:56:40.737Z,11.28
2023-05-10T05:59:44.933Z,11.70
2023-05-10T06:02:47.598Z,11.91
2023-05-10T06:05:50.514Z,11.92
2023-05-10T06:08:53.026Z,11.88
2023-05-10T06:11:55.793Z,11.85
2023-05-10T06:14:58.511Z,11.93
2023-05-10T06:18:01.460Z,11.95
2023-05-10T06:21:04.102Z,12.18
2023-05-10T06:24:07.726Z,12.33
2023-05-10T06:27:10.247Z,12.48
2023-05-10T06:30:14.423Z,12.51
2023-05-10T06:33:17.072Z,12.66
2023-05-10T06:36:19.938Z,12.69
2023-05-10T06:39:22.501Z,12.76
2023-05-10T06:42:26.469Z,12.78
2023-05-10T06:45:29.017Z,12.76
2023-05-10T06:48:31.994Z,13.00
2023-05-10T06:51:34.892Z,12.99
2023-05-10T06:54:58.726Z,13.23
2023-05-10T06:58:01.228Z,13.46
2023-05-10T07:01:05.236Z,13.51
2023-05-10T07:04:08.578Z,13.60
2023-05-10T07:07:11.359Z,13.55
2023-05-10T07:10:14.374Z,13.55
2023-05-10T07:13:17.249Z,13.65
2023-05-10T07:16:19.934Z,13.95
2023-05-10T07:19:22.940Z,14.12
2023-05-10T07:22:25.782Z,14.23
2023-05-10T07:25:28.706Z,14.31
2023-05-10T07:28:31.200Z,14.57
2023-05-10T07:31:34.361Z,14.79
2023-05-10T07:34:36.945Z,14.67
2023-05-10T07:37:39.705Z,14.50
2023-05-10T07:40:42.237Z,14.78
2023-05-10T07:43:45.247Z,15.15
2023-05-10T07:46:48.726Z,14.88
2023-05-10T07:49:51.477Z,14.60
2023-05-10T07:52:54.059Z,14.83
2023-05-10T07:56:00.064Z,15.10
2023-05-10T07:59:05.035Z,15.50
2023-05-10T08:02:07.932Z,15.97
2023-05-10T08:05:10.824Z,16.47
2023-05-10T08:08:13.292Z,16.61
2023-05-10T08:11:19.238Z,16.32
2023-05-10T08:14:21.862Z,16.53
2023-05-10T08:17:24.922Z,16.02
2023-05-10T08:20:27.573Z,15.48
2023-05-10T08:23:30.422Z,15.85
2023-05-10T08:26:33.553Z,16.27
2023-05-10T08:29:49.056Z,16.29
2023-05-10T08:32:52.421Z,16.14
2023-05-10T08:35:55.358Z,16.06
2023-05-10T08:38:57.785Z,15.73
2023-05-10T08:42:04.352Z,15.74
2023-05-10T08:45:08.610Z,15.53
2023-05-10T08:48:11.921Z,15.98
2023-05-10T08:51:17.446Z,16.47
2023-05-10T08:54:20.265Z,16.66
2023-05-10T08:57:22.841Z,17.64
2023-05-10T09:00:25.794Z,18.44
2023-05-10T09:03:28.397Z,18.24
2023-05-10T09:06:31.350Z,17.51
2023-05-10T09:09:34.587Z,17.43
2023-05-10T09:12:37.508Z,17.14
2023-05-10T09:15:40.212Z,17.13
2023-05-10T09:18:42.958Z,17.17
2023-05-10T09:21:45.920Z,17.03
2023-05-10T09:24:48.682Z,17.30
2023-05-10T09:27:51.299Z,17.19
2023-05-10T09:30:55.411Z,17.87
2023-05-10T09:33:58.264Z,17.29
2023-05-10T09:37:02.683Z,17.44
2023-05-10T09:40:09.830Z,17.44
2023-05-10T09:43:12.763Z,18.29
2023-05-10T09:46:16.876Z,18.30
2023-05-10T09:49:21.356Z,17.69
2023-05-10T09:52:23.839Z,18.17
2023-05-10T09:55:45.877Z,18.60
2023-05-10T09:59:03.336Z,18.72
2023-05-10T10:02:06.306Z,18.58
2023-05-10T10:05:09.690Z,18.63
2023-05-10T10:08:13.728Z,19.82
2023-05-10T10:11:16.551Z,19.29
2023-05-10T10:14:23.717Z,18.80
2023-05-10T10:17:29.087Z,18.98
2023-05-10T10:20:31.588Z,18.51
2023-05-10T10:23:34.400Z,18.04
2023-05-10T10:26:39.675Z,18.12
2023-05-10T10:29:51.456Z,18.95
2023-05-10T10:33:29.378Z,18.52
2023-05-10T10:36:34.243Z,18.82
2023-05-10T10:39:37.827Z,18.47
2023-05-10T10:42:50.918Z,18.07
2023-05-10T10:46:26.021Z,17.58
2023-05-10T10:49:28.974Z,17.71
2023-05-10T10:52:53.064Z,17.52
2023-05-10T10:56:10.619Z,17.83
2023-05-10T10:59:13.259Z,17.84
2023-05-10T11:02:55.550Z,17.88
2023-05-10T11:06:02.786Z,17.71
2023-05-10T11:09:09.620Z,17.66
2023-05-10T11:12:12.196Z,17.44
2023-05-10T11:15:15.240Z,17.44
2023-05-10T11:18:17.823Z,17.19
2023-05-10T11:21:20.824Z,17.09
2023-05-10T11:24:24.580Z,17.90
2023-05-10T11:27:27.449Z,17.77
2023-05-10T11:30:30.128Z,17.84
2023-05-10T11:33:46.073Z,17.65
2023-05-10T11:36:52.534Z,17.85
2023-05-10T11:39:55.936Z,18.14
2023-05-10T11:42:58.549Z,18.35
2023-05-10T11:46:01.400Z,18.47
2023-05-10T11:49:05.322Z,18.71
2023-05-10T11:52:09.287Z,18.98
2023-05-10T11:55:11.791Z,19.89
2023-05-10T11:58:14.530Z,19.64
2023-05-10T12:01:17.090Z,19.21
2023-05-10T12:04:20.308Z,18.83
2023-05-10T12:07:23.089Z,18.64
2023-05-10T12:10:27.801Z,17.98
2023-05-10T12:13:30.484Z,17.75
2023-05-10T12:16:33.633Z,17.71
2023-05-10T12:19:39.642Z,17.62
2023-05-10T12:22:45.751Z,17.71
2023-05-10T12:25:48.287Z,17.74
2023-05-10T12:28:51.190Z,17.56
2023-05-10T12:31:55.583Z,17.55
2023-05-10T12:34:58.771Z,17.53
2023-05-10T12:38:01.500Z,17.54
2023-05-10T12:41:05.973Z,17.68
2023-05-10T12:44:08.481Z,17.96
2023-05-10T12:47:11.858Z,18.03
2023-05-10T12:50:14.465Z,17.94
2023-05-10T12:53:17.724Z,18.03
2023-05-10T12:56:20.190Z,18.19
2023-05-10T12:59:23.850Z,18.20
2023-05-10T13:02:26.478Z,18.46
2023-05-10T13:05:29.294Z,18.64
2023-05-10T13:08:34.562Z,18.75
2023-05-10T13:11:37.816Z,18.76
2023-05-10T13:14:41.617Z,18.80
2023-05-10T13:17:44.575Z,18.85
2023-05-10T13:20:47.050Z,18.72
2023-05-10T13:23:49.814Z,19.03
2023-05-10T13:26:52.348Z,18.83
2023-05-10T13:29:55.932Z,18.67
2023-05-10T13:32:58.565Z,18.47
2023-05-10T13:36:01.337Z,18.76
2023-05-10T13:39:06.240Z,18.69
2023-05-10T13:42:09.105Z,18.78
2023-05-10T13:45:13.222Z,18.64
2023-05-10T13:48:16.738Z,18.78
2023-05-10T13:51:19.244Z,19.11
2023-05-10T13:54:23.171Z,19.42
2023-05-10T13:57:25.744Z,19.60
2023-05-10T14:00:28.946Z,19.34
2023-05-10T14:03:32.060Z,18.62
2023-05-10T14:06:34.959Z,18.49
2023-05-10T14:09:37.725Z,18.13
2023-05-10T14:12:40.284Z,18.03
2023-05-10T14:15:43.137Z,17.81
2023-05-10T14:18:45.597Z,17.75
2023-05-10T14:21:48.390Z,17.72
2023-05-10T14:24:51.181Z,17.97
2023-05-10T14:27:55.602Z,18.08
2023-05-10T14:30:58.036Z,18.45
2023-05-10T14:34:00.903Z,18.66
2023-05-10T14:37:03.382Z,19.07
2023-05-10T14:40:07.515Z,19.22
2023-05-10T14:43:10.237Z,19.20
2023-05-10T14:46:13.109Z,19.46
2023-05-10T14:49:15.670Z,19.35
2023-05-10T14:52:18.494Z,19.03
2023-05-10T14:55:21.283Z,18.74
2023-05-10T14:58:23.979Z,18.53
2023-05-10T15:01:26.618Z,18.56
2023-05-10T15:04:29.929Z,18.47
2023-05-10T15:07:32.886Z,18.55
2023-05-10T15:10:36.072Z,18.44
2023-05-10T15:13:38.490Z,18.29
2023-05-10T15:16:41.451Z,18.40
2023-05-10T15:19:44.029Z,18.21
2023-05-10T15:22:46.898Z,18.14
2023-05-10T15:25:50.803Z,18.00
2023-05-10T15:28:53.655Z,18.02
2023-05-10T15:31:56.235Z,17.81
2023-05-10T15:34:59.293Z,17.73
2023-05-10T15:38:01.905Z,17.79
2023-05-10T15:41:04.951Z,17.81
2023-05-10T15:44:07.561Z,17.70
2023-05-10T15:47:10.546Z,17.64
2023-05-10T15:50:13.045Z,17.60
2023-05-10T15:53:15.784Z,17.60
2023-05-10T15:56:18.423Z,17.68
2023-05-10T15:59:21.264Z,17.67
2023-05-10T16:02:24.001Z,17.62
2023-05-10T16:05:29.973Z,17.54
2023-05-10T16:08:33.734Z,17.49
2023-05-10T16:11:36.719Z,17.41
2023-05-10T16:14:39.192Z,17.44
2023-05-10T16:17:42.018Z,17.38
2023-05-10T16:20:44.892Z,17.20
2023-05-10T16:23:47.847Z,17.10
2023-05-10T16:26:50.400Z,17.03
2023-05-10T16:29:53.306Z,16.88
2023-05-10T16:32:59.993Z,16.85
2023-05-10T16:36:02.977Z,16.89
2023-05-10T16:39:05.482Z,16.83
2023-05-10T16:42:08.288Z,16.61
2023-05-10T16:45:11.305Z,16.51
2023-05-10T16:48:14.117Z,16.57
2023-05-10T16:51:16.550Z,16.54
2023-05-10T16:54:20.270Z,16.53
2023-05-10T16:57:22.819Z,16.46
2023-05-10T17:00:29.124Z,16.47
2023-05-10T17:03:31.662Z,16.42
2023-05-10T17:06:35.896Z,16.38
2023-05-10T17:09:38.326Z,16.33
2023-05-10T17:12:41.173Z,16.26
2023-05-10T17:15:45.834Z,16.16
2023-05-10T17:18:48.586Z,15.99
2023-05-10T17:21:51.090Z,15.97
2023-05-10T17:24:53.856Z,15.81
2023-05-10T17:27:56.393Z,15.81
2023-05-10T17:30:59.543Z,15.77
2023-05-10T17:34:04.722Z,15.68
2023-05-10T17:37:09.338Z,15.68
2023-05-10T17:40:12.275Z,15.59
2023-05-10T17:43:15.093Z,15.59
2023-05-10T17:46:17.998Z,15.48
2023-05-10T17:49:21.065Z,15.43
2023-05-10T17:52:23.570Z,15.42
2023-05-10T17:55:27.132Z,15.31
2023-05-10T17:58:30.344Z,15.28
2023-05-10T18:01:33.330Z,15.25
2023-05-10T18:04:37.201Z,15.25
2023-05-10T18:07:40.061Z,15.21
2023-05-10T18:10:42.853Z,15.20
2023-05-10T18:13:45.225Z,15.18
2023-05-10T18:16:48.290Z,15.15
2023-05-10T18:19:51.068Z,15.10
2023-05-10T18:22:55.425Z,15.03
2023-05-10T18:25:58.093Z,15.00
2023-05-10T18:29:01.722Z,14.98
2023-05-10T18:32:04.583Z,14.97
2023-05-10T18:35:07.950Z,14.98
2023-05-10T18:38:10.502Z,14.92
2023-05-10T18:41:14.570Z,14.88
2023-05-10T18:44:17.067Z,14.82
2023-05-10T18:47:20.130Z,14.77
2023-05-10T18:50:23.164Z,14.73
2023-05-10T18:53:27.064Z,14.66
2023-05-10T18:56:29.876Z,14.64
2023-05-10T18:59:32.994Z,14.61
2023-05-10T19:02:41.049Z,14.56
2023-05-10T19:05:44.876Z,14.54
2023-05-10T19:08:48.013Z,14.54
2023-05-10T19:11:51.521Z,14.48
2023-05-10T19:14:54.056Z,14.48
2023-05-10T19:17:58.171Z,14.47
2023-05-10T19:21:04.744Z,14.44
2023-05-10T19:24:07.872Z,14.34
2023-05-10T19:27:10.796Z,14.39
2023-05-10T19:30:13.802Z,14.32
2023-05-10T19:33:19.764Z,14.33
2023-05-10T19:36:22.992Z,14.27
2023-05-10T19:39:25.469Z,14.28
2023-05-10T19:42:28.485Z,14.25
2023-05-10T19:45:31.048Z,14.21
2023-05-10T19:48:33.815Z,14.24
2023-05-10T19:51:39.302Z,14.20
2023-05-10T19:54:44.527Z,14.14
2023-05-10T19:57:47.350Z,14.14
2023-05-10T20:00:50.512Z,14.11
2023-05-10T20:03:53.935Z,14.11
2023-05-10T20:06:56.460Z,14.08
2023-05-10T20:09:59.362Z,14.06
2023-05-10T20:13:01.858Z,14.02
2023-05-10T20:16:06.318Z,13.99
2023-05-10T20:19:09.099Z,13.94
2023-05-10T20:22:12.040Z,13.90
2023-05-10T20:25:14.986Z,13.87
2023-05-10T20:28:23.202Z,13.81
2023-05-10T20:31:25.731Z,13.75
2023-05-10T20:34:28.445Z,13.77
2023-05-10T20:37:31.200Z,13.69
2023-05-10T20:40:34.142Z,13.65
2023-05-10T20:43:36.917Z,13.59
2023-05-10T20:46:39.697Z,13.60
2023-05-10T20:49:42.729Z,13.55
2023-05-10T20:52:45.649Z,13.48
2023-05-10T20:55:48.138Z,13.45
2023-05-10T20:58:51.025Z,13.40
2023-05-10T21:01:53.632Z,13.35
2023-05-10T21:04:57.820Z,13.31
2023-05-10T21:08:00.672Z,13.25
2023-05-10T21:11:06.267Z,13.19
2023-05-10T21:14:09.697Z,13.15
2023-05-10T21:17:13.421Z,13.15
2023-05-10T21:20:16.121Z,13.13
2023-05-10T21:23:19.269Z,13.08
2023-05-10T21:26:22.171Z,13.09
2023-05-10T21:29:24.905Z,13.03
2023-05-10T21:32:27.431Z,13.01
2023-05-10T21:35:30.728Z,13.02
2023-05-10T21:38:33.266Z,13.01
2023-05-10T21:41:36.083Z,12.98
2023-05-10T21:44:38.721Z,12.95
2023-05-10T21:47:41.534Z,12.94
2023-05-10T21:50:44.791Z,12.88
2023-05-10T21:53:47.954Z,12.83
2023-05-10T21:56:50.659Z,12.76
2023-05-10T21:59:53.545Z,12.64
2023-05-10T22:02:56.168Z,12.58
2023-05-10T22:05:59.182Z,12.57
2023-05-10T22:09:01.843Z,12.50
2023-05-10T22:12:04.922Z,12.48
2023-05-10T22:15:10.806Z,12.39
2023-05-10T22:18:13.722Z,12.31
2023-05-10T22:21:16.544Z,12.34
2023-05-10T22:24:19.400Z,12.30
2023-05-10T22:27:22.053Z,12.29
2023-05-10T22:30:25.056Z,12.25
2023-05-10T22:33:27.543Z,12.23
2023-05-10T22:36:30.745Z,12.18
2023-05-10T22:39:33.332Z,12.15
2023-05-10T22:42:36.136Z,12.10
2023-05-10T22:45:38.799Z,12.13
2023-05-10T22:48:43.334Z,12.13
2023-05-10T22:51:46.541Z,12.13
2023-05-10T22:54:49.470Z,12.11
2023-05-10T22:57:52.227Z,12.16
2023-05-10T23:00:55.602Z,12.17
2023-05-10T23:03:58.502Z,12.15
2023-05-10T23:07:01.259Z,12.15
2023-05-10T23:10:04.000Z,12.22
2023-05-10T23:13:07.864Z,12.25
2023-05-10T23:16:10.602Z,12.31
2023-05-10T23:19:13.506Z,12.32
2023-05-10T23:22:16.082Z,12.39
2023-05-10T23:25:18.830Z,12.40
2023-05-10T23:28:21.678Z,12.40
2023-05-10T23:31:24.608Z,12.42
2023-05-10T23:34:27.363Z,12.41
2023-05-10T23:37:30.171Z,12.40
2023-05-10T23:40:32.792Z,12.39
2023-05-10T23:43:35.842Z,12.39
2023-05-10T23:46:38.476Z,12.36
2023-05-10T23:49:42.275Z,12.40
2023-05-10T23:52:44.801Z,12.38
2023-05-10T23:55:47.572Z,12.43
2023-05-10T23:58:50.655Z,12.45
